Time;durP1;ratioP1;P1;durP2;ratioP2;P2;SDS_P1;SDS_P2;PMS_P1;PMS_P2;Temp;Humidity;BMP_temperature;BMP_pressure;BME280_temperature;BME280_humidity;BME280_pressure;Samples;Min_cycle;Max_cycle;Signal;HPM_P1;HPM_P2
2021/10/10 00:00:06;;;;;;;19.65;16.10;;;9.20;80.10;;;;;;6201214;28;20438;-78
2021/10/10 00:03:07;;;;;;;18.73;14.75;;;9.20;81.00;;;;;;6201896;28;20477;-78
2021/10/10 00:06:10;;;;;;;19.65;15.57;;;9.20;80.60;;;;;;6202004;28;20418;-77
2021/10/10 00:09:12;;;;;;;21.90;16.67;;;9.20;79.80;;;;;;6201455;28;20900;-78
2021/10/10 00:12:14;;;;;;;18.17;16.13;;;9.20;80.70;;;;;;6202738;28;20796;-77
2021/10/10 00:15:16;;;;;;;17.23;15.35;;;9.20;80.90;;;;;;6201718;28;20784;-77
2021/10/10 00:18:18;;;;;;;16.38;14.10;;;9.20;81.00;;;;;;6203043;28;20419;-78
2021/10/10 00:21:21;;;;;;;20.83;17.10;;;9.20;81.10;;;;;;6201673;28;20411;-77
2021/10/10 00:24:23;;;;;;;18.65;16.65;;;9.20;81.10;;;;;;6201822;28;20445;-78
2021/10/10 00:27:25;;;;;;;20.45;16.80;;;9.20;80.90;;;;;;6199205;28;20446;-77
2021/10/10 00:30:26;;;;;;;19.42;15.15;;;9.20;81.00;;;;;;6199929;28;20907;-77
2021/10/10 00:33:28;;;;;;;20.23;15.63;;;9.20;81.10;;;;;;6201115;28;20497;-77
2021/10/10 00:36:33;;;;;;;19.73;15.32;;;9.20;81.00;;;;;;6201287;28;20799;-77
2021/10/10 00:39:35;;;;;;;20.92;16.60;;;9.10;80.60;;;;;;6200768;28;20472;-77
2021/10/10 00:42:37;;;;;;;18.55;15.18;;;9.10;80.50;;;;;;6215690;23;20437;-78
2021/10/10 00:45:39;;;;;;;17.20;13.65;;;9.10;80.40;;;;;;6200136;28;20418;-77
2021/10/10 00:48:41;;;;;;;18.08;15.15;;;9.10;80.10;;;;;;6197470;28;20446;-77
2021/10/10 00:51:45;;;;;;;19.52;13.88;;;9.00;80.30;;;;;;6196923;28;20417;-78
2021/10/10 00:54:49;;;;;;;16.95;14.38;;;9.00;80.20;;;;;;6200301;28;20410;-78
2021/10/10 00:57:52;;;;;;;17.25;14.68;;;9.00;79.20;;;;;;6198721;28;20791;-78
2021/10/10 01:00:55;;;;;;;18.10;15.32;;;8.90;80.20;;;;;;6198585;28;20472;-78
2021/10/10 01:03:57;;;;;;;18.50;14.70;;;8.90;80.20;;;;;;6199856;28;20454;-78
2021/10/10 01:07:01;;;;;;;19.83;15.35;;;8.90;80.10;;;;;;6199958;28;20954;-78
2021/10/10 01:10:04;;;;;;;18.90;14.57;;;8.90;80.60;;;;;;6199400;28;20777;-78
2021/10/10 01:13:06;;;;;;;17.15;13.43;;;8.90;80.10;;;;;;6199565;28;20434;-78
2021/10/10 01:16:08;;;;;;;21.08;14.35;;;8.80;79.80;;;;;;6199910;28;20470;-78
2021/10/10 01:19:10;;;;;;;17.80;15.38;;;8.80;80.30;;;;;;6199310;28;20446;-78
2021/10/10 01:22:13;;;;;;;19.67;14.63;;;8.80;80.10;;;;;;6199325;28;20419;-78
2021/10/10 01:25:15;;;;;;;18.98;14.93;;;8.80;80.30;;;;;;6198832;28;21062;-78
2021/10/10 01:28:16;;;;;;;16.73;14.40;;;8.70;80.30;;;;;;6199693;28;20587;-78
2021/10/10 01:31:18;;;;;;;18.10;14.98;;;8.70;80.30;;;;;;6199063;28;20935;-78
2021/10/10 01:34:20;;;;;;;18.52;15.00;;;8.70;80.60;;;;;;6199066;28;20783;-77
2021/10/10 01:37:23;;;;;;;18.52;14.73;;;8.60;80.80;;;;;;6199296;28;21078;-78
2021/10/10 01:40:25;;;;;;;17.80;15.88;;;8.60;80.70;;;;;;6199129;28;20816;-78
2021/10/10 01:43:27;;;;;;;18.40;15.35;;;8.60;81.10;;;;;;6198889;28;20418;-78
2021/10/10 01:46:28;;;;;;;16.65;14.93;;;8.60;81.10;;;;;;6199111;28;20552;-78
2021/10/10 01:49:30;;;;;;;21.10;16.20;;;8.60;81.10;;;;;;6198674;28;20441;-78
2021/10/10 01:52:33;;;;;;;19.83;15.80;;;8.60;80.70;;;;;;6199543;28;20438;-78
2021/10/10 01:55:35;;;;;;;18.97;15.20;;;8.50;80.60;;;;;;6198836;28;20541;-78
2021/10/10 01:58:37;;;;;;;18.38;14.77;;;8.50;80.50;;;;;;6197245;28;20422;-78
2021/10/10 02:01:39;;;;;;;18.48;14.55;;;8.50;80.70;;;;;;6198389;28;20449;-78
2021/10/10 02:04:41;;;;;;;22.10;15.50;;;8.50;80.90;;;;;;6198883;28;20434;-78
2021/10/10 02:07:44;;;;;;;22.23;16.38;;;8.40;80.80;;;;;;6198385;28;20488;-78
2021/10/10 02:10:46;;;;;;;19.63;14.80;;;8.40;81.30;;;;;;6198055;28;20454;-77
2021/10/10 02:13:48;;;;;;;19.33;16.02;;;8.30;80.80;;;;;;6198076;28;20419;-77
2021/10/10 02:16:50;;;;;;;21.65;15.65;;;8.30;81.50;;;;;;6198592;28;20438;-78
2021/10/10 02:19:52;;;;;;;19.95;16.17;;;8.20;81.60;;;;;;6197549;28;20942;-78
2021/10/10 02:22:55;;;;;;;17.70;15.35;;;8.20;82.30;;;;;;6197858;28;20510;-78
2021/10/10 02:25:57;;;;;;;19.83;15.73;;;8.20;82.10;;;;;;6197681;28;20414;-78
2021/10/10 02:28:59;;;;;;;26.35;16.73;;;8.20;81.60;;;;;;6197534;28;20442;-78
2021/10/10 02:32:00;;;;;;;21.35;15.05;;;8.20;81.70;;;;;;6197985;28;20904;-78
2021/10/10 02:35:02;;;;;;;22.83;16.73;;;8.30;81.00;;;;;;6197811;28;20517;-77
2021/10/10 02:38:06;;;;;;;19.05;15.73;;;8.20;81.40;;;;;;6197791;28;20454;-78
2021/10/10 02:41:07;;;;;;;21.05;16.33;;;8.20;81.90;;;;;;6197234;28;20431;-78
2021/10/10 02:44:09;;;;;;;18.42;15.88;;;8.20;81.40;;;;;;6197792;28;20431;-77
2021/10/10 02:47:11;;;;;;;17.88;14.63;;;8.10;81.70;;;;;;6197818;28;20431;-78
2021/10/10 02:50:13;;;;;;;18.67;15.65;;;8.00;81.80;;;;;;6204901;28;20416;-78
2021/10/10 02:53:16;;;;;;;18.90;13.95;;;8.00;82.40;;;;;;6198294;28;20481;-78
2021/10/10 02:56:17;;;;;;;19.02;15.82;;;8.00;82.10;;;;;;6199795;28;20454;-78
2021/10/10 02:59:19;;;;;;;18.63;15.63;;;8.10;81.80;;;;;;6197988;28;20426;-78
2021/10/10 03:02:21;;;;;;;20.10;15.63;;;8.10;81.70;;;;;;6199431;28;20497;-78
2021/10/10 03:05:23;;;;;;;18.23;14.68;;;8.10;81.60;;;;;;6199198;28;20934;-78
2021/10/10 03:08:26;;;;;;;19.75;15.48;;;8.10;81.80;;;;;;6199518;28;20434;-78
2021/10/10 03:11:28;;;;;;;18.20;13.70;;;8.10;81.70;;;;;;6198362;28;20509;-78
2021/10/10 03:14:29;;;;;;;18.75;13.80;;;8.00;81.60;;;;;;6198883;28;20422;-78
2021/10/10 03:17:31;;;;;;;17.25;14.32;;;8.00;81.20;;;;;;6198486;28;20855;-78
2021/10/10 03:20:34;;;;;;;20.75;14.63;;;8.00;81.60;;;;;;6198872;28;20911;-78
2021/10/10 03:23:38;;;;;;;18.45;14.30;;;7.90;81.80;;;;;;6197223;28;20776;-78
2021/10/10 03:26:39;;;;;;;21.42;15.30;;;7.90;81.90;;;;;;6197865;28;20502;-78
2021/10/10 03:29:41;;;;;;;19.38;15.18;;;7.90;82.00;;;;;;6197884;28;20429;-78
2021/10/10 03:32:43;;;;;;;16.02;13.15;;;7.80;82.20;;;;;;6198437;28;20520;-78
2021/10/10 03:35:45;;;;;;;21.42;15.40;;;7.90;81.80;;;;;;6198669;28;20450;-78
2021/10/10 03:38:50;;;;;;;18.88;14.05;;;7.90;81.50;;;;;;6197876;28;20493;-78
2021/10/10 03:41:52;;;;;;;18.10;13.43;;;7.90;81.10;;;;;;6198311;28;20419;-78
2021/10/10 03:44:54;;;;;;;18.35;13.73;;;7.90;80.90;;;;;;6198785;28;20435;-78
2021/10/10 03:47:55;;;;;;;18.15;14.57;;;7.90;80.80;;;;;;6198083;28;20417;-78
2021/10/10 03:50:57;;;;;;;19.83;15.63;;;7.80;80.90;;;;;;6197902;28;20916;-78
2021/10/10 03:54:33;;;;;;;18.23;14.50;;;7.80;81.10;;;;;;6198154;28;20795;-78
2021/10/10 03:57:34;;;;;;;18.58;15.30;;;7.80;81.50;;;;;;6197613;28;20908;-78
2021/10/10 04:00:38;;;;;;;15.65;14.02;;;7.70;81.90;;;;;;6196812;28;20952;-78
2021/10/10 04:03:40;;;;;;;15.32;13.43;;;7.80;82.30;;;;;;6197168;28;21160;-78
2021/10/10 04:06:41;;;;;;;17.13;14.23;;;7.80;82.10;;;;;;6197499;28;20415;-78
2021/10/10 04:09:44;;;;;;;16.92;15.02;;;7.80;81.90;;;;;;6197851;28;20426;-78
2021/10/10 04:12:47;;;;;;;17.85;14.30;;;7.80;81.50;;;;;;6198276;28;20434;-79
2021/10/10 04:15:49;;;;;;;16.88;13.45;;;7.80;81.30;;;;;;6197827;28;20418;-80
2021/10/10 04:18:50;;;;;;;16.45;14.02;;;7.90;80.90;;;;;;6198597;28;20421;-79
2021/10/10 04:21:52;;;;;;;17.30;13.37;;;7.80;80.80;;;;;;6197663;28;20441;-78
2021/10/10 04:24:55;;;;;;;16.98;13.65;;;7.80;80.80;;;;;;6198509;28;20947;-79
2021/10/10 04:27:57;;;;;;;18.23;13.85;;;7.80;80.20;;;;;;6198967;28;20414;-79
2021/10/10 04:30:59;;;;;;;19.08;14.40;;;7.80;80.50;;;;;;6198089;28;20429;-79
2021/10/10 04:34:00;;;;;;;15.40;13.45;;;7.70;80.50;;;;;;6198037;28;20458;-78
2021/10/10 04:37:02;;;;;;;15.73;12.83;;;7.70;80.80;;;;;;6198057;28;20520;-79
2021/10/10 04:40:07;;;;;;;18.17;14.00;;;7.70;80.20;;;;;;6198474;28;20445;-79
2021/10/10 04:43:09;;;;;;;17.40;13.73;;;7.70;80.00;;;;;;6198063;28;20422;-79
2021/10/10 04:46:11;;;;;;;19.60;13.50;;;7.60;80.10;;;;;;6198211;28;20498;-79
2021/10/10 04:49:13;;;;;;;16.40;14.70;;;7.60;80.10;;;;;;6198017;28;20440;-79
2021/10/10 04:52:14;;;;;;;16.42;14.20;;;7.50;80.20;;;;;;6198470;28;20437;-79
2021/10/10 04:55:18;;;;;;;15.20;13.23;;;7.50;80.70;;;;;;6198169;28;20425;-79
2021/10/10 04:58:20;;;;;;;19.10;14.18;;;7.40;80.90;;;;;;6197737;28;20489;-79
2021/10/10 05:01:21;;;;;;;19.48;15.07;;;7.40;81.10;;;;;;6196110;28;20902;-79
2021/10/10 05:04:23;;;;;;;16.43;13.70;;;7.40;80.80;;;;;;6197773;28;20434;-79
2021/10/10 05:07:25;;;;;;;17.35;13.25;;;7.40;80.50;;;;;;6197043;28;20410;-79
2021/10/10 05:10:28;;;;;;;19.65;14.60;;;7.40;80.50;;;;;;6194822;28;21240;-77
2021/10/10 05:13:30;;;;;;;18.00;14.85;;;7.30;80.70;;;;;;6195181;28;20927;-78
2021/10/10 05:16:32;;;;;;;16.88;11.93;;;7.30;80.90;;;;;;6198902;28;20438;-78
2021/10/10 05:19:34;;;;;;;18.40;13.77;;;7.20;81.00;;;;;;6198977;28;20938;-78
2021/10/10 05:22:36;;;;;;;18.13;14.30;;;7.20;81.40;;;;;;6199497;28;20421;-77
2021/10/10 05:25:39;;;;;;;20.52;14.30;;;7.20;81.00;;;;;;6199150;28;20411;-78
2021/10/10 05:28:40;;;;;;;18.33;12.88;;;7.10;80.90;;;;;;6199542;28;20908;-78
2021/10/10 05:31:42;;;;;;;20.27;14.32;;;7.10;81.00;;;;;;6199136;28;20498;-78
2021/10/10 05:34:44;;;;;;;19.05;12.43;;;7.10;81.70;;;;;;6199121;28;20470;-78
2021/10/10 05:37:46;;;;;;;16.02;13.50;;;7.20;81.00;;;;;;6199061;28;20422;-77
2021/10/10 05:40:49;;;;;;;18.88;13.85;;;7.10;80.70;;;;;;6199362;28;20474;-78
2021/10/10 05:43:51;;;;;;;16.92;13.48;;;7.10;81.30;;;;;;6198738;28;20430;-78
2021/10/10 05:46:52;;;;;;;18.80;13.15;;;7.10;80.80;;;;;;6199055;28;20414;-77
2021/10/10 05:49:54;;;;;;;16.08;12.85;;;7.10;81.00;;;;;;6198689;28;20410;-78
2021/10/10 05:52:56;;;;;;;20.08;14.00;;;7.10;80.80;;;;;;6198655;28;20441;-78
2021/10/10 05:56:01;;;;;;;17.40;13.70;;;7.10;81.20;;;;;;6199439;28;20438;-78
2021/10/10 05:59:06;;;;;;;20.48;13.13;;;7.10;80.70;;;;;;6198726;28;20557;-78
2021/10/10 06:02:08;;;;;;;26.67;14.23;;;7.20;80.70;;;;;;6199030;28;20919;-78
2021/10/10 06:05:10;;;;;;;18.15;14.20;;;7.20;80.90;;;;;;6199860;28;20445;-77
2021/10/10 06:08:12;;;;;;;16.20;13.73;;;7.20;81.30;;;;;;6201931;28;20904;-78
2021/10/10 06:11:15;;;;;;;17.80;14.85;;;7.20;80.30;;;;;;6199987;28;20425;-77
2021/10/10 06:14:17;;;;;;;22.08;15.60;;;7.20;80.80;;;;;;6199196;28;20415;-78
2021/10/10 06:17:19;;;;;;;17.90;13.77;;;7.20;80.40;;;;;;6198413;28;20415;-77
2021/10/10 06:20:21;;;;;;;15.68;12.57;;;7.20;80.60;;;;;;6198480;28;20430;-77
2021/10/10 06:23:23;;;;;;;18.13;14.70;;;7.20;80.90;;;;;;6197915;28;20418;-77
2021/10/10 06:26:26;;;;;;;17.13;13.75;;;7.30;80.60;;;;;;6196961;28;20505;-77
2021/10/10 06:29:28;;;;;;;18.40;14.20;;;7.20;80.50;;;;;;6197677;28;20548;-77
2021/10/10 06:32:30;;;;;;;17.08;13.45;;;7.20;80.50;;;;;;6198089;28;20449;-77
2021/10/10 06:35:31;;;;;;;18.23;13.75;;;7.30;81.40;;;;;;6197632;28;20419;-77
2021/10/10 06:38:33;;;;;;;14.70;12.35;;;7.40;80.80;;;;;;6197722;28;20422;-77
2021/10/10 06:41:36;;;;;;;15.50;13.83;;;7.50;80.50;;;;;;6222675;23;20484;-76
2021/10/10 06:44:38;;;;;;;17.20;14.45;;;7.60;80.10;;;;;;6198007;28;20445;-77
2021/10/10 06:47:40;;;;;;;13.98;12.20;;;7.70;80.30;;;;;;6197549;28;20529;-76
2021/10/10 06:50:42;;;;;;;19.00;14.02;;;7.70;79.50;;;;;;6197309;28;20423;-77
2021/10/10 06:53:43;;;;;;;14.88;12.63;;;7.80;79.50;;;;;;6197511;28;20486;-77
2021/10/10 06:56:47;;;;;;;15.85;12.68;;;8.00;79.40;;;;;;6199139;28;20915;-77
2021/10/10 06:59:48;;;;;;;15.20;13.00;;;8.10;78.60;;;;;;6198285;28;20533;-77
2021/10/10 07:02:50;;;;;;;18.50;13.40;;;8.20;78.20;;;;;;6192433;28;20418;-77
2021/10/10 07:05:52;;;;;;;19.30;13.32;;;8.30;78.00;;;;;;6175480;28;20420;-77
2021/10/10 07:08:54;;;;;;;14.90;13.25;;;8.50;77.60;;;;;;6173435;28;20440;-77
2021/10/10 07:11:57;;;;;;;16.75;14.10;;;8.60;77.20;;;;;;6173472;28;21247;-76
2021/10/10 07:14:59;;;;;;;16.75;13.63;;;8.70;76.90;;;;;;6172935;28;20416;-77
2021/10/10 07:18:03;;;;;;;19.77;13.48;;;8.90;76.80;;;;;;6173371;28;20431;-77
2021/10/10 07:21:17;;;;;;;15.40;12.50;;;9.20;76.10;;;;;;6173344;28;20920;-77
2021/10/10 07:27:41;;;;;;;19.33;12.93;;;10.00;73.60;;;;;;6172975;28;20489;-77
2021/10/10 07:30:45;;;;;;;13.25;11.80;;;10.30;72.20;;;;;;6172397;28;20428;-77
2021/10/10 07:33:47;;;;;;;15.75;11.70;;;10.40;71.90;;;;;;6173259;28;20416;-77
2021/10/10 07:36:48;;;;;;;14.35;12.35;;;10.70;71.50;;;;;;6173768;28;20432;-77
2021/10/10 07:39:50;;;;;;;14.50;12.27;;;10.90;70.10;;;;;;6172675;28;20430;-77
2021/10/10 07:42:53;;;;;;;13.73;12.30;;;11.20;69.50;;;;;;6173075;28;20432;-77
2021/10/10 07:46:05;;;;;;;15.27;12.63;;;11.50;68.30;;;;;;6172595;28;20416;-78
2021/10/10 07:49:08;;;;;;;21.13;13.63;;;11.70;67.30;;;;;;6174953;28;22484;-78
2021/10/10 07:52:10;;;;;;;15.93;13.15;;;11.70;66.40;;;;;;6191231;28;20442;-77
2021/10/10 07:55:12;;;;;;;18.20;14.33;;;11.60;67.10;;;;;;6199560;28;20496;-77
2021/10/10 07:58:15;;;;;;;22.80;14.67;;;11.70;67.50;;;;;;6195986;28;20758;-77
2021/10/10 08:01:17;;;;;;;15.97;13.57;;;11.90;67.20;;;;;;6196713;28;20486;-77
2021/10/10 08:04:19;;;;;;;14.85;11.57;;;12.00;66.70;;;;;;6186675;28;20567;-77
2021/10/10 08:07:21;;;;;;;20.08;15.85;;;12.10;65.50;;;;;;6194782;28;20931;-77
2021/10/10 08:10:24;;;;;;;17.52;11.85;;;12.20;65.80;;;;;;6195715;28;20422;-77
2021/10/10 08:13:27;;;;;;;14.35;11.50;;;12.40;65.20;;;;;;6196347;28;20426;-77
2021/10/10 08:16:29;;;;;;;14.43;11.65;;;12.70;64.80;;;;;;6196740;28;20433;-77
2021/10/10 08:19:31;;;;;;;15.20;13.25;;;12.70;64.00;;;;;;6196332;28;20434;-77
2021/10/10 08:22:34;;;;;;;13.27;11.23;;;12.70;64.00;;;;;;6187761;28;20422;-78
2021/10/10 08:25:37;;;;;;;14.27;12.32;;;12.70;64.80;;;;;;6196010;28;20415;-77
2021/10/10 08:28:40;;;;;;;15.00;11.80;;;12.90;64.60;;;;;;6196302;28;20438;-77
2021/10/10 08:31:42;;;;;;;18.50;12.73;;;13.10;62.90;;;;;;6195593;28;20430;-77
2021/10/10 08:34:43;;;;;;;16.27;12.07;;;13.10;63.50;;;;;;6196073;28;20480;-77
2021/10/10 08:37:46;;;;;;;15.13;10.88;;;13.50;64.30;;;;;;6195946;28;20429;-77
2021/10/10 08:40:48;;;;;;;13.43;11.07;;;14.00;62.40;;;;;;6196353;28;20438;-78
2021/10/10 08:43:54;;;;;;;14.45;10.48;;;14.40;60.20;;;;;;6197897;28;20801;-77
2021/10/10 08:47:01;;;;;;;15.68;12.00;;;14.60;59.30;;;;;;6196475;28;20426;-77
2021/10/10 08:50:04;;;;;;;24.30;12.50;;;14.90;60.20;;;;;;6197555;28;20955;-77
2021/10/10 08:53:06;;;;;;;21.33;14.05;;;15.30;58.50;;;;;;6193812;28;20442;-77
2021/10/10 08:56:08;;;;;;;15.33;12.40;;;15.80;56.70;;;;;;6201660;28;20510;-77
2021/10/10 08:59:12;;;;;;;14.48;10.48;;;16.10;54.70;;;;;;6200408;28;20418;-77
2021/10/10 09:02:19;;;;;;;15.27;11.15;;;15.90;55.20;;;;;;6199929;28;20414;-77
2021/10/10 09:05:21;;;;;;;14.00;10.20;;;15.90;55.90;;;;;;6190527;28;20412;-77
2021/10/10 09:08:23;;;;;;;14.35;10.85;;;16.10;56.00;;;;;;6177251;28;20440;-77
2021/10/10 09:11:42;;;;;;;13.95;10.85;;;16.40;56.90;;;;;;6175613;28;20419;-77
2021/10/10 09:14:47;;;;;;;12.18;10.85;;;16.60;54.80;;;;;;6175737;28;20564;-77
2021/10/10 09:17:53;;;;;;;13.88;11.52;;;16.80;54.30;;;;;;6176185;28;20425;-77
2021/10/10 09:20:55;;;;;;;11.98;10.55;;;16.70;52.50;;;;;;6186721;28;20537;-78
2021/10/10 09:23:57;;;;;;;18.60;10.93;;;16.50;54.30;;;;;;6198936;28;20433;-77
2021/10/10 09:26:59;;;;;;;12.18;10.20;;;16.70;54.80;;;;;;6189503;28;20908;-77
2021/10/10 09:30:05;;;;;;;13.05;10.00;;;16.90;56.50;;;;;;6186665;28;20431;-77
2021/10/10 09:33:07;;;;;;;15.98;10.00;;;17.20;53.00;;;;;;6186073;28;20500;-77
2021/10/10 09:36:15;;;;;;;13.50;10.65;;;17.20;52.70;;;;;;6188484;28;20436;-77
2021/10/10 09:39:18;;;;;;;12.90;9.63;;;17.10;52.60;;;;;;6186291;28;20814;-78
2021/10/10 09:42:32;;;;;;;14.32;10.70;;;17.40;54.10;;;;;;6186371;28;20425;-77
2021/10/10 09:45:41;;;;;;;13.05;9.80;;;17.50;51.50;;;;;;6188135;28;20557;-77
2021/10/10 09:48:43;;;;;;;13.68;10.80;;;17.40;51.00;;;;;;6187231;28;21168;-77
2021/10/10 09:51:45;;;;;;;12.52;10.50;;;17.60;53.70;;;;;;6185442;28;20447;-77
2021/10/10 09:54:51;;;;;;;13.07;10.38;;;18.00;50.00;;;;;;6185327;28;20425;-77
2021/10/10 09:57:53;;;;;;;16.05;11.52;;;18.00;49.00;;;;;;6185779;28;20997;-77
2021/10/10 10:01:11;;;;;;;16.75;10.82;;;18.10;50.00;;;;;;6187391;28;20891;-77
2021/10/10 10:04:13;;;;;;;13.35;10.88;;;18.10;49.10;;;;;;6185742;28;20840;-78
2021/10/10 10:07:17;;;;;;;16.17;10.88;;;18.00;49.70;;;;;;6185201;28;20430;-77
2021/10/10 10:10:19;;;;;;;15.45;10.90;;;17.90;48.90;;;;;;6184078;28;20552;-77
2021/10/10 10:13:21;;;;;;;14.17;10.20;;;17.90;50.30;;;;;;6199521;28;20422;-77
2021/10/10 10:16:24;;;;;;;20.45;10.00;;;18.00;50.70;;;;;;6203978;28;20810;-77
2021/10/10 10:19:27;;;;;;;15.30;10.57;;;18.50;50.30;;;;;;6199888;28;20433;-77
2021/10/10 10:22:34;;;;;;;11.50;9.70;;;19.00;48.60;;;;;;6192390;28;20497;-77
2021/10/10 10:25:36;;;;;;;15.32;10.43;;;19.60;46.90;;;;;;6199575;28;20763;-77
2021/10/10 10:28:38;;;;;;;17.98;11.07;;;19.70;45.90;;;;;;6200723;28;20456;-77
2021/10/10 10:31:45;;;;;;;16.60;9.90;;;20.00;45.10;;;;;;6200981;28;20479;-77
2021/10/10 10:35:00;;;;;;;12.43;9.55;;;20.10;45.40;;;;;;6185476;28;20421;-77
2021/10/10 10:38:02;;;;;;;11.15;9.65;;;20.10;44.30;;;;;;6177083;28;20421;-78
2021/10/10 10:41:04;;;;;;;11.77;9.82;;;20.10;44.20;;;;;;6174379;28;20921;-77
2021/10/10 10:44:06;;;;;;;13.75;9.68;;;20.30;43.10;;;;;;6175645;28;20478;-78
2021/10/10 10:47:11;;;;;;;14.20;10.10;;;20.40;42.40;;;;;;6177856;28;20890;-77
2021/10/10 10:50:14;;;;;;;13.90;8.97;;;20.80;43.00;;;;;;6175602;28;20495;-78
2021/10/10 10:53:22;;;;;;;11.75;8.75;;;21.10;41.00;;;;;;6169616;28;20436;-77
2021/10/10 10:56:29;;;;;;;14.02;9.38;;;21.10;41.40;;;;;;6177219;28;20922;-77
2021/10/10 10:59:58;;;;;;;11.05;9.50;;;21.20;41.50;;;;;;6177078;28;20420;-78
2021/10/10 11:03:15;;;;;;;15.20;10.35;;;21.30;40.00;;;;;;6177896;28;20432;-78
2021/10/10 11:06:20;;;;;;;11.00;9.32;;;21.70;39.20;;;;;;6174675;28;20531;-77
2021/10/10 11:09:25;;;;;;;12.65;9.18;;;21.90;38.60;;;;;;6154153;28;20421;-77
2021/10/10 11:12:30;;;;;;;12.95;9.52;;;22.10;38.60;;;;;;6149399;28;20455;-78
2021/10/10 11:15:49;;;;;;;13.55;9.25;;;22.30;37.60;;;;;;6152094;28;20421;-78
2021/10/10 11:18:54;;;;;;;15.07;8.82;;;21.90;38.60;;;;;;6154782;28;20966;-77
2021/10/10 11:21:57;;;;;;;12.05;8.85;;;22.00;39.20;;;;;;6162903;28;20863;-78
2021/10/10 11:24:58;;;;;;;10.27;8.90;;;22.20;38.30;;;;;;6151485;28;20927;-77
2021/10/10 11:28:00;;;;;;;11.15;8.32;;;22.30;37.50;;;;;;6151582;28;20512;-77
2021/10/10 11:31:07;;;;;;;11.38;8.43;;;22.20;36.80;;;;;;6149685;28;20429;-77
2021/10/10 11:34:12;;;;;;;10.65;7.88;;;22.10;36.10;;;;;;6151462;28;20513;-78
2021/10/10 11:37:14;;;;;;;11.75;7.72;;;21.80;36.60;;;;;;6152058;28;20437;-77
2021/10/10 11:40:16;;;;;;;10.70;7.57;;;21.80;37.80;;;;;;6151649;28;20520;-77
2021/10/10 11:43:22;;;;;;;11.73;8.05;;;21.70;36.50;;;;;;6151811;28;20953;-77
2021/10/10 11:46:23;;;;;;;11.25;8.15;;;21.80;37.60;;;;;;6152172;28;20428;-78
2021/10/10 11:49:35;;;;;;;15.02;9.75;;;22.20;36.20;;;;;;6154875;28;20424;-77
2021/10/10 11:52:39;;;;;;;9.25;7.95;;;21.80;35.40;;;;;;6164382;28;20493;-77
2021/10/10 11:55:44;;;;;;;10.80;7.50;;;21.70;38.10;;;;;;6172896;28;20994;-77
2021/10/10 11:58:46;;;;;;;9.40;7.35;;;22.10;38.30;;;;;;6173826;28;20423;-78
2021/10/10 12:01:52;;;;;;;12.55;7.90;;;22.40;37.20;;;;;;6177567;28;20901;-78
2021/10/10 12:05:08;;;;;;;10.30;7.25;;;22.50;35.40;;;;;;6179301;28;20447;-76
2021/10/10 12:08:20;;;;;;;10.10;7.35;;;22.50;35.80;;;;;;6168264;28;20559;-77
2021/10/10 12:11:22;;;;;;;10.32;7.63;;;22.60;35.10;;;;;;6191306;28;20796;-77
2021/10/10 12:14:23;;;;;;;13.43;8.18;;;22.30;36.00;;;;;;6198282;28;20425;-77
2021/10/10 12:17:30;;;;;;;10.95;7.65;;;22.50;36.00;;;;;;6200478;28;20481;-78
2021/10/10 12:20:33;;;;;;;9.13;7.15;;;22.50;33.50;;;;;;6200211;28;20433;-78
2021/10/10 12:23:38;;;;;;;11.57;7.55;;;22.00;34.10;;;;;;6180057;28;20514;-77
2021/10/10 12:27:01;;;;;;;15.95;7.60;;;21.70;35.80;;;;;;6180157;28;20640;-77
2021/10/10 12:30:04;;;;;;;10.23;8.60;;;21.80;36.90;;;;;;6181900;28;20490;-77
2021/10/10 12:33:24;;;;;;;11.48;7.38;;;21.90;35.70;;;;;;6179812;28;20446;-77
2021/10/10 12:36:27;;;;;;;12.32;7.68;;;22.10;35.90;;;;;;6182177;28;20442;-77
2021/10/10 12:39:41;;;;;;;10.87;6.83;;;22.10;36.40;;;;;;6181583;28;20908;-77
2021/10/10 12:42:47;;;;;;;12.30;7.47;;;22.20;34.40;;;;;;6180728;28;20943;-77
2021/10/10 12:46:00;;;;;;;12.27;7.38;;;22.00;34.30;;;;;;6178345;28;20466;-77
2021/10/10 12:49:05;;;;;;;8.82;6.88;;;21.80;36.70;;;;;;6180712;28;20443;-77
2021/10/10 12:52:10;;;;;;;11.10;7.43;;;21.80;36.40;;;;;;6197507;28;20473;-78
2021/10/10 12:55:20;;;;;;;8.67;6.63;;;21.60;35.50;;;;;;6206956;28;20426;-77
2021/10/10 12:58:22;;;;;;;11.95;8.48;;;21.30;37.60;;;;;;6205480;28;20422;-77
2021/10/10 13:01:26;;;;;;;11.32;7.93;;;21.70;36.90;;;;;;6204418;28;20418;-77
2021/10/10 13:04:28;;;;;;;8.55;7.60;;;22.10;35.70;;;;;;6210030;28;21233;-77
2021/10/10 13:07:32;;;;;;;9.63;6.65;;;22.40;34.80;;;;;;6208383;28;20418;-78
2021/10/10 13:10:33;;;;;;;9.50;7.43;;;22.80;34.90;;;;;;6193729;28;20502;-77
2021/10/10 13:13:35;;;;;;;9.15;7.05;;;23.00;33.80;;;;;;6188047;28;20864;-77
2021/10/10 13:16:38;;;;;;;11.50;7.45;;;23.20;33.60;;;;;;6187503;28;20491;-77
2021/10/10 13:19:39;;;;;;;9.73;8.00;;;23.00;34.20;;;;;;6192378;28;20433;-77
2021/10/10 13:22:42;;;;;;;11.68;7.35;;;22.80;33.80;;;;;;6202761;28;20501;-78
2021/10/10 13:25:44;;;;;;;15.02;7.85;;;22.80;35.60;;;;;;6202060;28;20496;-77
2021/10/10 13:28:46;;;;;;;11.07;7.07;;;23.10;33.90;;;;;;6200647;28;20927;-77
2021/10/10 13:31:50;;;;;;;9.40;7.25;;;23.40;33.80;;;;;;6199603;28;20517;-77
2021/10/10 13:34:51;;;;;;;9.88;7.45;;;23.30;34.10;;;;;;6200093;28;20978;-76
2021/10/10 13:37:54;;;;;;;12.13;7.43;;;22.70;34.00;;;;;;6199439;28;20422;-77
2021/10/10 13:40:57;;;;;;;11.52;7.50;;;22.20;35.90;;;;;;6199106;28;20533;-76
2021/10/10 13:43:58;;;;;;;12.13;7.60;;;22.10;36.80;;;;;;6200080;28;20876;-77
2021/10/10 13:47:00;;;;;;;9.85;6.90;;;22.00;35.40;;;;;;6198906;28;20937;-76
2021/10/10 13:50:02;;;;;;;9.43;7.07;;;21.60;37.70;;;;;;6198953;28;20520;-75
2021/10/10 13:53:05;;;;;;;11.93;7.93;;;21.40;36.30;;;;;;6190504;28;20804;-76
2021/10/10 13:56:07;;;;;;;14.05;7.97;;;21.40;36.70;;;;;;6199944;28;20438;-76
2021/10/10 13:59:09;;;;;;;9.20;7.37;;;21.10;37.50;;;;;;6199431;28;20553;-77
2021/10/10 14:02:11;;;;;;;8.35;7.40;;;21.10;36.80;;;;;;6199761;28;20419;-76
2021/10/10 14:05:13;;;;;;;14.13;7.00;;;20.80;38.10;;;;;;6199722;28;20474;-77
2021/10/10 14:08:17;;;;;;;12.02;8.38;;;20.90;39.10;;;;;;6200434;28;20433;-76
2021/10/10 14:11:18;;;;;;;10.82;8.38;;;20.70;37.70;;;;;;6189807;28;20422;-76
2021/10/10 14:14:20;;;;;;;8.90;7.40;;;20.40;38.40;;;;;;6198738;28;20424;-77
2021/10/10 14:17:22;;;;;;;16.98;9.18;;;20.40;36.90;;;;;;6198907;28;20414;-76
2021/10/10 14:20:24;;;;;;;15.53;7.90;;;20.20;38.70;;;;;;6196597;28;20449;-76
2021/10/10 14:23:27;;;;;;;11.63;7.72;;;20.30;39.00;;;;;;6192310;28;20506;-76
2021/10/10 14:26:29;;;;;;;10.50;8.38;;;20.30;38.20;;;;;;6198410;28;20419;-77
2021/10/10 14:29:30;;;;;;;9.93;7.80;;;20.20;38.70;;;;;;6197905;28;20550;-76
2021/10/10 14:32:32;;;;;;;11.10;7.18;;;20.10;39.40;;;;;;6198591;28;20922;-77
2021/10/10 14:35:34;;;;;;;12.35;7.55;;;20.10;40.40;;;;;;6198233;28;20553;-77
2021/10/10 14:38:37;;;;;;;13.35;7.40;;;20.10;39.90;;;;;;6197638;28;20509;-77
2021/10/10 14:41:42;;;;;;;12.47;7.40;;;20.00;39.50;;;;;;6198146;28;20438;-77
2021/10/10 14:44:47;;;;;;;10.03;6.83;;;19.90;40.40;;;;;;6198286;28;20442;-76
2021/10/10 14:48:05;;;;;;;8.13;6.60;;;19.80;40.30;;;;;;6197126;28;20429;-77
2021/10/10 14:51:07;;;;;;;9.52;7.63;;;20.00;40.70;;;;;;6189087;28;20416;-77
2021/10/10 14:54:10;;;;;;;9.10;8.07;;;20.20;40.00;;;;;;6197289;28;20791;-76
2021/10/10 14:57:18;;;;;;;9.07;6.93;;;20.40;39.20;;;;;;6197684;28;20430;-76
2021/10/10 15:00:21;;;;;;;12.38;7.38;;;20.40;38.20;;;;;;6197762;28;20537;-77
2021/10/10 15:03:22;;;;;;;13.37;7.30;;;20.20;39.30;;;;;;6197357;28;20422;-77
2021/10/10 15:06:24;;;;;;;12.10;7.05;;;20.20;39.80;;;;;;6197211;28;20505;-76
2021/10/10 15:09:28;;;;;;;9.77;6.50;;;20.20;39.50;;;;;;6196690;28;20422;-77
2021/10/10 15:12:30;;;;;;;9.73;7.35;;;20.00;39.80;;;;;;6185364;28;20458;-77
2021/10/10 15:15:34;;;;;;;10.35;7.22;;;19.60;40.50;;;;;;6197618;28;20502;-76
2021/10/10 15:18:36;;;;;;;10.57;7.35;;;19.40;40.90;;;;;;6197122;28;20418;-77
2021/10/10 15:21:38;;;;;;;10.55;7.30;;;19.10;42.70;;;;;;6188799;28;20422;-77
2021/10/10 15:24:41;;;;;;;12.57;7.40;;;19.00;42.60;;;;;;6197790;28;20536;-76
2021/10/10 15:27:43;;;;;;;9.27;7.32;;;18.80;43.90;;;;;;6197133;28;20488;-77
2021/10/10 15:30:47;;;;;;;12.50;7.68;;;18.60;43.20;;;;;;6196294;28;20417;-76
2021/10/10 15:33:49;;;;;;;13.82;7.03;;;18.30;44.00;;;;;;6189804;28;20432;-76
2021/10/10 15:36:51;;;;;;;11.23;7.10;;;18.00;44.70;;;;;;6173431;28;20427;-76
2021/10/10 15:39:55;;;;;;;9.23;7.57;;;17.70;45.80;;;;;;6172741;28;20420;-77
2021/10/10 15:42:56;;;;;;;17.65;7.22;;;17.60;46.30;;;;;;6172670;28;20424;-77